sensor_id;sensor_type;location;lat;lon;timestamp;temperature;humidity
65239;SHT30;51827;51.186;6.926;2022-07-22T00:00:32;22.64;67.19
65239;SHT30;51827;51.186;6.926;2022-07-22T00:01:32;22.62;67.16
65239;SHT30;51827;51.186;6.926;2022-07-22T00:02:32;22.65;67.18
65239;SHT30;51827;51.186;6.926;2022-07-22T00:03:33;22.64;67.19
65239;SHT30;51827;51.186;6.926;2022-07-22T00:04:33;22.65;67.20
65239;SHT30;51827;51.186;6.926;2022-07-22T00:05:33;22.64;67.19
65239;SHT30;51827;51.186;6.926;2022-07-22T00:06:34;22.62;67.22
65239;SHT30;51827;51.186;6.926;2022-07-22T00:07:34;22.64;67.22
65239;SHT30;51827;51.186;6.926;2022-07-22T00:08:34;22.64;67.19
65239;SHT30;51827;51.186;6.926;2022-07-22T00:09:34;22.61;67.15
65239;SHT30;51827;51.186;6.926;2022-07-22T00:10:35;22.62;67.18
65239;SHT30;51827;51.186;6.926;2022-07-22T00:11:35;22.64;67.10
65239;SHT30;51827;51.186;6.926;2022-07-22T00:12:35;22.64;67.07
65239;SHT30;51827;51.186;6.926;2022-07-22T00:13:36;22.62;67.12
65239;SHT30;51827;51.186;6.926;2022-07-22T00:14:36;22.62;67.10
65239;SHT30;51827;51.186;6.926;2022-07-22T00:15:36;22.62;67.11
65239;SHT30;51827;51.186;6.926;2022-07-22T00:16:37;22.59;67.09
65239;SHT30;51827;51.186;6.926;2022-07-22T00:17:37;22.58;67.11
65239;SHT30;51827;51.186;6.926;2022-07-22T00:18:37;22.59;67.10
65239;SHT30;51827;51.186;6.926;2022-07-22T00:19:38;22.61;67.11
65239;SHT30;51827;51.186;6.926;2022-07-22T00:20:38;22.59;67.09
65239;SHT30;51827;51.186;6.926;2022-07-22T00:21:38;22.59;67.06
65239;SHT30;51827;51.186;6.926;2022-07-22T00:22:38;22.61;67.08
65239;SHT30;51827;51.186;6.926;2022-07-22T00:23:39;22.56;67.11
65239;SHT30;51827;51.186;6.926;2022-07-22T00:24:39;22.59;67.08
65239;SHT30;51827;51.186;6.926;2022-07-22T00:25:39;22.56;67.10
65239;SHT30;51827;51.186;6.926;2022-07-22T00:26:40;22.61;67.06
65239;SHT30;51827;51.186;6.926;2022-07-22T00:27:40;22.58;67.04
65239;SHT30;51827;51.186;6.926;2022-07-22T00:28:40;22.61;67.05
65239;SHT30;51827;51.186;6.926;2022-07-22T00:29:41;22.61;66.99
65239;SHT30;51827;51.186;6.926;2022-07-22T00:30:41;22.61;66.99
65239;SHT30;51827;51.186;6.926;2022-07-22T00:31:41;22.59;66.98
65239;SHT30;51827;51.186;6.926;2022-07-22T00:32:42;22.61;66.94
65239;SHT30;51827;51.186;6.926;2022-07-22T00:33:42;22.62;66.88
65239;SHT30;51827;51.186;6.926;2022-07-22T00:34:42;22.62;66.88
65239;SHT30;51827;51.186;6.926;2022-07-22T00:35:43;22.58;66.89
65239;SHT30;51827;51.186;6.926;2022-07-22T00:36:43;22.59;66.94
65239;SHT30;51827;51.186;6.926;2022-07-22T00:37:43;22.61;66.89
65239;SHT30;51827;51.186;6.926;2022-07-22T00:38:43;22.64;66.88
65239;SHT30;51827;51.186;6.926;2022-07-22T00:39:44;22.61;66.90
65239;SHT30;51827;51.186;6.926;2022-07-22T00:40:44;22.62;66.87
65239;SHT30;51827;51.186;6.926;2022-07-22T00:41:44;22.64;66.84
65239;SHT30;51827;51.186;6.926;2022-07-22T00:42:45;22.65;66.84
65239;SHT30;51827;51.186;6.926;2022-07-22T00:44:49;22.62;66.81
65239;SHT30;51827;51.186;6.926;2022-07-22T00:45:50;22.64;66.76
65239;SHT30;51827;51.186;6.926;2022-07-22T00:46:50;22.65;66.79
65239;SHT30;51827;51.186;6.926;2022-07-22T00:47:50;22.62;66.80
65239;SHT30;51827;51.186;6.926;2022-07-22T00:48:51;22.66;66.77
65239;SHT30;51827;51.186;6.926;2022-07-22T00:49:51;22.61;66.79
65239;SHT30;51827;51.186;6.926;2022-07-22T00:50:52;22.65;66.77
65239;SHT30;51827;51.186;6.926;2022-07-22T00:51:52;22.65;66.72
65239;SHT30;51827;51.186;6.926;2022-07-22T00:52:52;22.65;66.69
65239;SHT30;51827;51.186;6.926;2022-07-22T00:53:54;22.65;66.69
65239;SHT30;51827;51.186;6.926;2022-07-22T00:54:55;22.64;66.66
65239;SHT30;51827;51.186;6.926;2022-07-22T00:55:56;22.64;66.70
65239;SHT30;51827;51.186;6.926;2022-07-22T00:56:56;22.64;66.65
65239;SHT30;51827;51.186;6.926;2022-07-22T00:57:56;22.65;66.67
65239;SHT30;51827;51.186;6.926;2022-07-22T00:58:58;22.64;66.67
65239;SHT30;51827;51.186;6.926;2022-07-22T00:59:59;22.66;66.65
65239;SHT30;51827;51.186;6.926;2022-07-22T01:01:00;22.65;66.62
65239;SHT30;51827;51.186;6.926;2022-07-22T01:02:00;22.64;66.63
65239;SHT30;51827;51.186;6.926;2022-07-22T01:03:00;22.64;66.70
65239;SHT30;51827;51.186;6.926;2022-07-22T01:04:01;22.64;66.68
65239;SHT30;51827;51.186;6.926;2022-07-22T01:05:01;22.64;66.63
65239;SHT30;51827;51.186;6.926;2022-07-22T01:06:02;22.62;66.63
65239;SHT30;51827;51.186;6.926;2022-07-22T01:07:03;22.62;66.67
65239;SHT30;51827;51.186;6.926;2022-07-22T01:08:05;22.62;66.62
65239;SHT30;51827;51.186;6.926;2022-07-22T01:09:06;22.62;66.62
65239;SHT30;51827;51.186;6.926;2022-07-22T01:10:06;22.61;66.63
65239;SHT30;51827;51.186;6.926;2022-07-22T01:11:12;22.64;66.62
65239;SHT30;51827;51.186;6.926;2022-07-22T01:12:13;22.59;66.64
65239;SHT30;51827;51.186;6.926;2022-07-22T01:13:14;22.62;66.61
65239;SHT30;51827;51.186;6.926;2022-07-22T01:14:14;22.62;66.62
65239;SHT30;51827;51.186;6.926;2022-07-22T01:15:15;22.58;66.61
65239;SHT30;51827;51.186;6.926;2022-07-22T01:16:16;22.61;66.56
65239;SHT30;51827;51.186;6.926;2022-07-22T01:17:16;22.65;66.53
65239;SHT30;51827;51.186;6.926;2022-07-22T01:18:17;22.64;66.53
65239;SHT30;51827;51.186;6.926;2022-07-22T01:19:17;22.62;66.55
65239;SHT30;51827;51.186;6.926;2022-07-22T01:20:17;22.64;66.51
65239;SHT30;51827;51.186;6.926;2022-07-22T01:21:18;22.64;66.49
65239;SHT30;51827;51.186;6.926;2022-07-22T01:22:18;22.64;66.49
65239;SHT30;51827;51.186;6.926;2022-07-22T01:23:18;22.64;66.49
65239;SHT30;51827;51.186;6.926;2022-07-22T01:24:18;22.62;66.47
65239;SHT30;51827;51.186;6.926;2022-07-22T01:25:19;22.64;66.41
65239;SHT30;51827;51.186;6.926;2022-07-22T01:26:19;22.62;66.44
65239;SHT30;51827;51.186;6.926;2022-07-22T01:27:20;22.62;66.41
65239;SHT30;51827;51.186;6.926;2022-07-22T01:28:21;22.64;66.44
65239;SHT30;51827;51.186;6.926;2022-07-22T01:29:21;22.62;66.42
65239;SHT30;51827;51.186;6.926;2022-07-22T01:30:21;22.64;66.41
65239;SHT30;51827;51.186;6.926;2022-07-22T01:31:22;22.64;66.40
65239;SHT30;51827;51.186;6.926;2022-07-22T01:32:22;22.62;66.41
65239;SHT30;51827;51.186;6.926;2022-07-22T01:33:23;22.62;66.41
65239;SHT30;51827;51.186;6.926;2022-07-22T01:34:23;22.64;66.38
65239;SHT30;51827;51.186;6.926;2022-07-22T01:35:24;22.64;66.37
65239;SHT30;51827;51.186;6.926;2022-07-22T01:36:25;22.64;66.40
65239;SHT30;51827;51.186;6.926;2022-07-22T01:37:26;22.62;66.39
65239;SHT30;51827;51.186;6.926;2022-07-22T01:38:26;22.61;66.42
65239;SHT30;51827;51.186;6.926;2022-07-22T01:39:26;22.59;66.43
65239;SHT30;51827;51.186;6.926;2022-07-22T01:40:26;22.61;66.40
65239;SHT30;51827;51.186;6.926;2022-07-22T01:41:27;22.58;66.41
65239;SHT30;51827;51.186;6.926;2022-07-22T01:42:27;22.58;66.41
65239;SHT30;51827;51.186;6.926;2022-07-22T01:43:27;22.61;66.40
65239;SHT30;51827;51.186;6.926;2022-07-22T01:44:30;22.62;66.39
65239;SHT30;51827;51.186;6.926;2022-07-22T01:45:30;22.56;66.37
65239;SHT30;51827;51.186;6.926;2022-07-22T01:46:31;22.58;66.36
65239;SHT30;51827;51.186;6.926;2022-07-22T01:47:31;22.58;66.44
65239;SHT30;51827;51.186;6.926;2022-07-22T01:48:31;22.58;66.37
65239;SHT30;51827;51.186;6.926;2022-07-22T01:49:32;22.59;66.34
65239;SHT30;51827;51.186;6.926;2022-07-22T01:50:32;22.58;66.34
65239;SHT30;51827;51.186;6.926;2022-07-22T01:51:32;22.56;66.34
65239;SHT30;51827;51.186;6.926;2022-07-22T01:52:33;22.58;66.34
65239;SHT30;51827;51.186;6.926;2022-07-22T01:53:33;22.59;66.34
65239;SHT30;51827;51.186;6.926;2022-07-22T01:54:34;22.59;66.28
65239;SHT30;51827;51.186;6.926;2022-07-22T01:55:35;22.59;66.32
65239;SHT30;51827;51.186;6.926;2022-07-22T01:56:35;22.55;66.30
65239;SHT30;51827;51.186;6.926;2022-07-22T01:57:36;22.59;66.29
65239;SHT30;51827;51.186;6.926;2022-07-22T01:58:36;22.58;66.26
65239;SHT30;51827;51.186;6.926;2022-07-22T01:59:36;22.58;66.23
65239;SHT30;51827;51.186;6.926;2022-07-22T02:00:36;22.55;66.23
65239;SHT30;51827;51.186;6.926;2022-07-22T02:01:37;22.58;66.24
65239;SHT30;51827;51.186;6.926;2022-07-22T02:02:37;22.56;66.27
65239;SHT30;51827;51.186;6.926;2022-07-22T02:03:38;22.56;66.24
65239;SHT30;51827;51.186;6.926;2022-07-22T02:04:38;22.59;66.16
65239;SHT30;51827;51.186;6.926;2022-07-22T02:05:38;22.56;66.15
65239;SHT30;51827;51.186;6.926;2022-07-22T02:06:38;22.59;66.14
65239;SHT30;51827;51.186;6.926;2022-07-22T02:07:39;22.61;66.18
65239;SHT30;51827;51.186;6.926;2022-07-22T02:08:39;22.59;66.13
65239;SHT30;51827;51.186;6.926;2022-07-22T02:09:39;22.58;66.08
65239;SHT30;51827;51.186;6.926;2022-07-22T02:10:40;22.56;66.09
65239;SHT30;51827;51.186;6.926;2022-07-22T02:11:40;22.59;66.16
65239;SHT30;51827;51.186;6.926;2022-07-22T02:12:41;22.56;66.13
65239;SHT30;51827;51.186;6.926;2022-07-22T02:13:41;22.58;66.10
65239;SHT30;51827;51.186;6.926;2022-07-22T02:14:41;22.59;66.10
65239;SHT30;51827;51.186;6.926;2022-07-22T02:15:42;22.58;66.10
65239;SHT30;51827;51.186;6.926;2022-07-22T02:16:42;22.56;66.10
65239;SHT30;51827;51.186;6.926;2022-07-22T02:17:42;22.59;66.09
65239;SHT30;51827;51.186;6.926;2022-07-22T02:18:42;22.59;66.10
65239;SHT30;51827;51.186;6.926;2022-07-22T02:19:43;22.58;66.09
65239;SHT30;51827;51.186;6.926;2022-07-22T02:20:44;22.59;66.04
65239;SHT30;51827;51.186;6.926;2022-07-22T02:21:44;22.58;66.04
65239;SHT30;51827;51.186;6.926;2022-07-22T02:22:44;22.58;66.02
65239;SHT30;51827;51.186;6.926;2022-07-22T02:23:45;22.58;66.02
65239;SHT30;51827;51.186;6.926;2022-07-22T02:24:45;22.59;66.05
65239;SHT30;51827;51.186;6.926;2022-07-22T02:25:45;22.61;66.01
65239;SHT30;51827;51.186;6.926;2022-07-22T02:26:45;22.59;66.02
65239;SHT30;51827;51.186;6.926;2022-07-22T02:27:46;22.58;66.02
65239;SHT30;51827;51.186;6.926;2022-07-22T02:28:46;22.58;66.04
65239;SHT30;51827;51.186;6.926;2022-07-22T02:29:46;22.59;66.02
65239;SHT30;51827;51.186;6.926;2022-07-22T02:30:47;22.58;66.03
65239;SHT30;51827;51.186;6.926;2022-07-22T02:31:47;22.59;66.00
65239;SHT30;51827;51.186;6.926;2022-07-22T02:32:47;22.56;65.98
65239;SHT30;51827;51.186;6.926;2022-07-22T02:33:48;22.59;66.01
65239;SHT30;51827;51.186;6.926;2022-07-22T02:34:48;22.59;65.96
65239;SHT30;51827;51.186;6.926;2022-07-22T02:35:48;22.56;65.98
65239;SHT30;51827;51.186;6.926;2022-07-22T02:36:49;22.59;65.97
65239;SHT30;51827;51.186;6.926;2022-07-22T02:37:49;22.58;65.99
65239;SHT30;51827;51.186;6.926;2022-07-22T02:38:49;22.58;65.98
65239;SHT30;51827;51.186;6.926;2022-07-22T02:39:50;22.59;66.04
65239;SHT30;51827;51.186;6.926;2022-07-22T02:40:50;22.58;66.02
65239;SHT30;51827;51.186;6.926;2022-07-22T02:41:50;22.58;66.02
65239;SHT30;51827;51.186;6.926;2022-07-22T02:42:51;22.58;66.00
65239;SHT30;51827;51.186;6.926;2022-07-22T02:43:51;22.58;66.02
65239;SHT30;51827;51.186;6.926;2022-07-22T02:44:51;22.58;65.98
65239;SHT30;51827;51.186;6.926;2022-07-22T02:45:51;22.61;65.96
65239;SHT30;51827;51.186;6.926;2022-07-22T02:46:52;22.56;65.99
65239;SHT30;51827;51.186;6.926;2022-07-22T02:47:55;22.58;66.01
65239;SHT30;51827;51.186;6.926;2022-07-22T02:48:56;22.58;65.94
65239;SHT30;51827;51.186;6.926;2022-07-22T02:49:56;22.58;65.99
65239;SHT30;51827;51.186;6.926;2022-07-22T02:50:56;22.62;66.02
65239;SHT30;51827;51.186;6.926;2022-07-22T02:51:57;22.58;66.03
65239;SHT30;51827;51.186;6.926;2022-07-22T02:52:57;22.58;65.98
65239;SHT30;51827;51.186;6.926;2022-07-22T02:53:57;22.58;66.06
65239;SHT30;51827;51.186;6.926;2022-07-22T02:54:58;22.56;66.01
65239;SHT30;51827;51.186;6.926;2022-07-22T02:55:58;22.58;66.00
65239;SHT30;51827;51.186;6.926;2022-07-22T02:56:58;22.58;65.98
65239;SHT30;51827;51.186;6.926;2022-07-22T02:58:07;22.58;65.97
65239;SHT30;51827;51.186;6.926;2022-07-22T02:59:07;22.58;65.94
65239;SHT30;51827;51.186;6.926;2022-07-22T03:00:08;22.58;66.00
65239;SHT30;51827;51.186;6.926;2022-07-22T03:01:09;22.56;65.98
65239;SHT30;51827;51.186;6.926;2022-07-22T03:02:09;22.58;65.99
65239;SHT30;51827;51.186;6.926;2022-07-22T03:03:09;22.58;66.00
65239;SHT30;51827;51.186;6.926;2022-07-22T03:04:10;22.55;65.99
65239;SHT30;51827;51.186;6.926;2022-07-22T03:05:10;22.56;65.99
65239;SHT30;51827;51.186;6.926;2022-07-22T03:06:10;22.55;65.99
65239;SHT30;51827;51.186;6.926;2022-07-22T03:07:11;22.58;65.95
65239;SHT30;51827;51.186;6.926;2022-07-22T03:08:11;22.55;65.99
65239;SHT30;51827;51.186;6.926;2022-07-22T03:09:11;22.56;65.95
65239;SHT30;51827;51.186;6.926;2022-07-22T03:10:11;22.58;65.90
65239;SHT30;51827;51.186;6.926;2022-07-22T03:11:12;22.61;65.89
65239;SHT30;51827;51.186;6.926;2022-07-22T03:12:12;22.58;65.91
65239;SHT30;51827;51.186;6.926;2022-07-22T03:13:12;22.58;65.92
65239;SHT30;51827;51.186;6.926;2022-07-22T03:14:13;22.59;65.89
65239;SHT30;51827;51.186;6.926;2022-07-22T03:15:13;22.58;65.97
65239;SHT30;51827;51.186;6.926;2022-07-22T03:16:13;22.59;65.90
65239;SHT30;51827;51.186;6.926;2022-07-22T03:17:13;22.56;65.90
65239;SHT30;51827;51.186;6.926;2022-07-22T03:18:14;22.56;65.93
65239;SHT30;51827;51.186;6.926;2022-07-22T03:19:14;22.59;65.93
65239;SHT30;51827;51.186;6.926;2022-07-22T03:20:14;22.58;66.10
65239;SHT30;51827;51.186;6.926;2022-07-22T03:21:15;22.56;66.19
65239;SHT30;51827;51.186;6.926;2022-07-22T03:22:15;22.52;66.26
65239;SHT30;51827;51.186;6.926;2022-07-22T03:23:15;22.48;66.36
65239;SHT30;51827;51.186;6.926;2022-07-22T03:24:15;22.49;66.41
65239;SHT30;51827;51.186;6.926;2022-07-22T03:25:16;22.45;66.59
65239;SHT30;51827;51.186;6.926;2022-07-22T03:26:16;22.40;66.62
65239;SHT30;51827;51.186;6.926;2022-07-22T03:27:16;22.38;66.68
65239;SHT30;51827;51.186;6.926;2022-07-22T03:28:16;22.38;66.79
65239;SHT30;51827;51.186;6.926;2022-07-22T03:29:17;22.35;66.81
65239;SHT30;51827;51.186;6.926;2022-07-22T03:30:17;22.34;66.88
65239;SHT30;51827;51.186;6.926;2022-07-22T03:31:18;22.30;66.94
65239;SHT30;51827;51.186;6.926;2022-07-22T03:32:18;22.28;66.96
65239;SHT30;51827;51.186;6.926;2022-07-22T03:33:19;22.27;66.98
65239;SHT30;51827;51.186;6.926;2022-07-22T03:34:19;22.27;67.00
65239;SHT30;51827;51.186;6.926;2022-07-22T03:35:19;22.27;67.02
65239;SHT30;51827;51.186;6.926;2022-07-22T03:36:19;22.25;67.05
65239;SHT30;51827;51.186;6.926;2022-07-22T03:37:20;22.24;67.02
65239;SHT30;51827;51.186;6.926;2022-07-22T03:38:20;22.24;67.01
65239;SHT30;51827;51.186;6.926;2022-07-22T03:39:20;22.22;67.04
65239;SHT30;51827;51.186;6.926;2022-07-22T03:40:20;22.21;67.08
65239;SHT30;51827;51.186;6.926;2022-07-22T03:41:21;22.24;67.10
65239;SHT30;51827;51.186;6.926;2022-07-22T03:42:21;22.20;67.12
65239;SHT30;51827;51.186;6.926;2022-07-22T03:43:22;22.18;67.10
65239;SHT30;51827;51.186;6.926;2022-07-22T03:44:22;22.18;67.07
65239;SHT30;51827;51.186;6.926;2022-07-22T03:45:22;22.20;67.08
65239;SHT30;51827;51.186;6.926;2022-07-22T03:46:22;22.24;66.93
65239;SHT30;51827;51.186;6.926;2022-07-22T03:47:23;22.27;66.78
65239;SHT30;51827;51.186;6.926;2022-07-22T03:48:23;22.28;66.79
65239;SHT30;51827;51.186;6.926;2022-07-22T03:49:23;22.31;67.10
65239;SHT30;51827;51.186;6.926;2022-07-22T03:50:24;22.34;67.04
65239;SHT30;51827;51.186;6.926;2022-07-22T03:51:25;22.34;67.16
65239;SHT30;51827;51.186;6.926;2022-07-22T03:52:25;22.35;67.27
65239;SHT30;51827;51.186;6.926;2022-07-22T03:53:25;22.35;67.61
65239;SHT30;51827;51.186;6.926;2022-07-22T03:54:26;22.38;67.80
65239;SHT30;51827;51.186;6.926;2022-07-22T03:55:26;22.34;67.73
65239;SHT30;51827;51.186;6.926;2022-07-22T03:56:26;22.34;67.66
65239;SHT30;51827;51.186;6.926;2022-07-22T03:57:26;22.32;67.64
65239;SHT30;51827;51.186;6.926;2022-07-22T03:58:27;22.31;67.63
65239;SHT30;51827;51.186;6.926;2022-07-22T03:59:27;22.31;67.73
65239;SHT30;51827;51.186;6.926;2022-07-22T04:00:27;22.30;67.77
65239;SHT30;51827;51.186;6.926;2022-07-22T04:01:28;22.28;67.81
65239;SHT30;51827;51.186;6.926;2022-07-22T04:02:28;22.27;67.81
65239;SHT30;51827;51.186;6.926;2022-07-22T04:03:28;22.25;67.89
65239;SHT30;51827;51.186;6.926;2022-07-22T04:04:29;22.27;68.00
65239;SHT30;51827;51.186;6.926;2022-07-22T04:05:29;22.25;68.02
65239;SHT30;51827;51.186;6.926;2022-07-22T04:06:30;22.21;68.01
65239;SHT30;51827;51.186;6.926;2022-07-22T04:07:30;22.22;68.01
65239;SHT30;51827;51.186;6.926;2022-07-22T04:08:30;22.24;68.04
65239;SHT30;51827;51.186;6.926;2022-07-22T04:09:30;22.22;67.98
65239;SHT30;51827;51.186;6.926;2022-07-22T04:10:31;22.22;67.97
65239;SHT30;51827;51.186;6.926;2022-07-22T04:11:31;22.20;68.00
65239;SHT30;51827;51.186;6.926;2022-07-22T04:12:36;22.18;68.00
65239;SHT30;51827;51.186;6.926;2022-07-22T04:13:37;22.18;67.99
65239;SHT30;51827;51.186;6.926;2022-07-22T04:14:37;22.18;67.99
65239;SHT30;51827;51.186;6.926;2022-07-22T04:15:37;22.17;67.94
65239;SHT30;51827;51.186;6.926;2022-07-22T04:16:38;22.17;67.88
65239;SHT30;51827;51.186;6.926;2022-07-22T04:17:38;22.17;67.87
65239;SHT30;51827;51.186;6.926;2022-07-22T04:18:38;22.15;67.81
65239;SHT30;51827;51.186;6.926;2022-07-22T04:19:38;22.15;67.84
65239;SHT30;51827;51.186;6.926;2022-07-22T04:20:39;22.14;67.87
65239;SHT30;51827;51.186;6.926;2022-07-22T04:21:39;22.18;67.77
65239;SHT30;51827;51.186;6.926;2022-07-22T04:22:39;22.14;67.77
65239;SHT30;51827;51.186;6.926;2022-07-22T04:23:40;22.12;67.80
65239;SHT30;51827;51.186;6.926;2022-07-22T04:24:40;22.11;67.79
65239;SHT30;51827;51.186;6.926;2022-07-22T04:25:40;22.12;67.77
65239;SHT30;51827;51.186;6.926;2022-07-22T04:26:40;22.11;67.78
65239;SHT30;51827;51.186;6.926;2022-07-22T04:27:41;22.12;67.80
65239;SHT30;51827;51.186;6.926;2022-07-22T04:28:41;22.10;67.77
65239;SHT30;51827;51.186;6.926;2022-07-22T04:29:41;22.11;67.79
65239;SHT30;51827;51.186;6.926;2022-07-22T04:30:42;22.08;67.84
65239;SHT30;51827;51.186;6.926;2022-07-22T04:31:42;22.11;67.84
65239;SHT30;51827;51.186;6.926;2022-07-22T04:32:42;22.10;67.83
65239;SHT30;51827;51.186;6.926;2022-07-22T04:33:42;22.11;67.87
65239;SHT30;51827;51.186;6.926;2022-07-22T04:34:43;22.10;67.91
65239;SHT30;51827;51.186;6.926;2022-07-22T04:35:43;22.10;67.87
65239;SHT30;51827;51.186;6.926;2022-07-22T04:36:43;22.12;67.94
65239;SHT30;51827;51.186;6.926;2022-07-22T04:37:43;22.14;68.00
65239;SHT30;51827;51.186;6.926;2022-07-22T04:38:44;22.11;68.19
65239;SHT30;51827;51.186;6.926;2022-07-22T04:39:44;22.10;68.27
65239;SHT30;51827;51.186;6.926;2022-07-22T04:40:44;22.07;68.23
65239;SHT30;51827;51.186;6.926;2022-07-22T04:41:44;22.11;68.23
65239;SHT30;51827;51.186;6.926;2022-07-22T04:42:45;22.08;68.16
65239;SHT30;51827;51.186;6.926;2022-07-22T04:43:45;22.08;68.09
65239;SHT30;51827;51.186;6.926;2022-07-22T04:44:45;22.04;68.06
65239;SHT30;51827;51.186;6.926;2022-07-22T04:45:45;22.05;68.04
65239;SHT30;51827;51.186;6.926;2022-07-22T04:46:46;22.04;68.00
65239;SHT30;51827;51.186;6.926;2022-07-22T04:47:46;22.02;68.00
65239;SHT30;51827;51.186;6.926;2022-07-22T04:48:46;22.01;67.95
65239;SHT30;51827;51.186;6.926;2022-07-22T04:49:47;22.00;67.87
65239;SHT30;51827;51.186;6.926;2022-07-22T04:50:47;21.94;67.94
65239;SHT30;51827;51.186;6.926;2022-07-22T04:51:47;21.98;67.86
65239;SHT30;51827;51.186;6.926;2022-07-22T04:52:48;21.96;67.93
65239;SHT30;51827;51.186;6.926;2022-07-22T04:53:48;21.90;67.92
65239;SHT30;51827;51.186;6.926;2022-07-22T04:54:48;21.91;67.88
65239;SHT30;51827;51.186;6.926;2022-07-22T04:55:48;21.90;67.91
65239;SHT30;51827;51.186;6.926;2022-07-22T04:56:49;21.90;67.85
65239;SHT30;51827;51.186;6.926;2022-07-22T04:57:49;21.86;67.81
65239;SHT30;51827;51.186;6.926;2022-07-22T04:58:49;21.91;67.70
65239;SHT30;51827;51.186;6.926;2022-07-22T04:59:50;21.87;67.64
65239;SHT30;51827;51.186;6.926;2022-07-22T05:00:50;21.89;67.66
65239;SHT30;51827;51.186;6.926;2022-07-22T05:01:50;21.87;67.62
65239;SHT30;51827;51.186;6.926;2022-07-22T05:02:50;21.84;67.56
65239;SHT30;51827;51.186;6.926;2022-07-22T05:03:51;21.84;67.53
65239;SHT30;51827;51.186;6.926;2022-07-22T05:04:51;21.84;67.55
65239;SHT30;51827;51.186;6.926;2022-07-22T05:05:51;21.84;67.55
65239;SHT30;51827;51.186;6.926;2022-07-22T05:06:52;21.81;67.62
65239;SHT30;51827;51.186;6.926;2022-07-22T05:07:52;21.80;67.68
65239;SHT30;51827;51.186;6.926;2022-07-22T05:08:52;21.80;67.75
65239;SHT30;51827;51.186;6.926;2022-07-22T05:09:52;21.80;67.72
65239;SHT30;51827;51.186;6.926;2022-07-22T05:10:53;21.80;67.70
65239;SHT30;51827;51.186;6.926;2022-07-22T05:11:53;21.83;67.66
65239;SHT30;51827;51.186;6.926;2022-07-22T05:12:53;21.78;67.67
65239;SHT30;51827;51.186;6.926;2022-07-22T05:13:53;21.77;67.66
65239;SHT30;51827;51.186;6.926;2022-07-22T05:14:54;21.83;67.66
65239;SHT30;51827;51.186;6.926;2022-07-22T05:15:54;21.80;67.62
65239;SHT30;51827;51.186;6.926;2022-07-22T05:16:54;21.81;67.63
65239;SHT30;51827;51.186;6.926;2022-07-22T05:17:55;21.81;67.55
65239;SHT30;51827;51.186;6.926;2022-07-22T05:18:55;21.87;67.47
65239;SHT30;51827;51.186;6.926;2022-07-22T05:19:55;21.84;67.39
65239;SHT30;51827;51.186;6.926;2022-07-22T05:20:55;21.90;67.32
65239;SHT30;51827;51.186;6.926;2022-07-22T05:21:56;21.90;67.24
65239;SHT30;51827;51.186;6.926;2022-07-22T05:22:56;21.96;67.14
65239;SHT30;51827;51.186;6.926;2022-07-22T05:23:56;21.97;67.09
65239;SHT30;51827;51.186;6.926;2022-07-22T05:24:56;21.98;67.02
65239;SHT30;51827;51.186;6.926;2022-07-22T05:25:57;21.98;66.96
65239;SHT30;51827;51.186;6.926;2022-07-22T05:26:57;22.01;66.88
65239;SHT30;51827;51.186;6.926;2022-07-22T05:27:57;22.04;66.82
65239;SHT30;51827;51.186;6.926;2022-07-22T05:28:58;22.04;66.76
65239;SHT30;51827;51.186;6.926;2022-07-22T05:29:58;22.04;66.73
65239;SHT30;51827;51.186;6.926;2022-07-22T05:30:58;22.05;66.68
65239;SHT30;51827;51.186;6.926;2022-07-22T05:31:59;22.08;66.63
65239;SHT30;51827;51.186;6.926;2022-07-22T05:32:59;22.10;66.59
65239;SHT30;51827;51.186;6.926;2022-07-22T05:33:59;22.11;66.55
65239;SHT30;51827;51.186;6.926;2022-07-22T05:34:59;22.11;66.45
65239;SHT30;51827;51.186;6.926;2022-07-22T05:36:00;22.11;66.43
65239;SHT30;51827;51.186;6.926;2022-07-22T05:37:00;22.15;66.43
65239;SHT30;51827;51.186;6.926;2022-07-22T05:38:02;22.14;66.42
65239;SHT30;51827;51.186;6.926;2022-07-22T05:39:03;22.15;66.34
65239;SHT30;51827;51.186;6.926;2022-07-22T05:40:04;22.18;66.30
65239;SHT30;51827;51.186;6.926;2022-07-22T05:41:04;22.18;66.25
65239;SHT30;51827;51.186;6.926;2022-07-22T05:42:05;22.20;66.23
65239;SHT30;51827;51.186;6.926;2022-07-22T05:43:05;22.20;66.19
65239;SHT30;51827;51.186;6.926;2022-07-22T05:44:05;22.20;66.22
65239;SHT30;51827;51.186;6.926;2022-07-22T05:45:06;22.22;66.14
65239;SHT30;51827;51.186;6.926;2022-07-22T05:46:07;22.24;66.10
65239;SHT30;51827;51.186;6.926;2022-07-22T05:47:07;22.22;66.07
65239;SHT30;51827;51.186;6.926;2022-07-22T05:48:07;22.22;66.05
65239;SHT30;51827;51.186;6.926;2022-07-22T05:49:07;22.25;65.99
65239;SHT30;51827;51.186;6.926;2022-07-22T05:50:08;22.27;65.98
65239;SHT30;51827;51.186;6.926;2022-07-22T05:51:12;22.27;65.98
65239;SHT30;51827;51.186;6.926;2022-07-22T05:52:13;22.27;65.92
65239;SHT30;51827;51.186;6.926;2022-07-22T05:53:13;22.25;65.92
65239;SHT30;51827;51.186;6.926;2022-07-22T05:54:14;22.31;65.90
65239;SHT30;51827;51.186;6.926;2022-07-22T05:55:14;22.31;65.87
65239;SHT30;51827;51.186;6.926;2022-07-22T05:56:14;22.32;65.81
65239;SHT30;51827;51.186;6.926;2022-07-22T05:57:14;22.31;65.81
65239;SHT30;51827;51.186;6.926;2022-07-22T05:58:15;22.30;65.77
65239;SHT30;51827;51.186;6.926;2022-07-22T05:59:15;22.30;65.73
65239;SHT30;51827;51.186;6.926;2022-07-22T06:00:15;22.32;65.78
65239;SHT30;51827;51.186;6.926;2022-07-22T06:01:16;22.32;65.72
65239;SHT30;51827;51.186;6.926;2022-07-22T06:02:16;22.32;65.68
65239;SHT30;51827;51.186;6.926;2022-07-22T06:03:16;22.32;65.69
65239;SHT30;51827;51.186;6.926;2022-07-22T06:04:16;22.34;65.68
65239;SHT30;51827;51.186;6.926;2022-07-22T06:05:17;22.31;65.67
65239;SHT30;51827;51.186;6.926;2022-07-22T06:06:17;22.34;65.70
65239;SHT30;51827;51.186;6.926;2022-07-22T06:07:17;22.32;65.65
65239;SHT30;51827;51.186;6.926;2022-07-22T06:08:18;22.35;65.63
65239;SHT30;51827;51.186;6.926;2022-07-22T06:09:18;22.34;65.65
65239;SHT30;51827;51.186;6.926;2022-07-22T06:10:18;22.35;65.60
65239;SHT30;51827;51.186;6.926;2022-07-22T06:11:18;22.37;65.55
65239;SHT30;51827;51.186;6.926;2022-07-22T06:12:19;22.40;65.58
65239;SHT30;51827;51.186;6.926;2022-07-22T06:13:20;22.38;65.55
65239;SHT30;51827;51.186;6.926;2022-07-22T06:14:20;22.37;65.51
65239;SHT30;51827;51.186;6.926;2022-07-22T06:15:20;22.38;65.57
65239;SHT30;51827;51.186;6.926;2022-07-22T06:16:20;22.37;65.56
65239;SHT30;51827;51.186;6.926;2022-07-22T06:17:21;22.35;65.54
65239;SHT30;51827;51.186;6.926;2022-07-22T06:18:21;22.40;65.53
65239;SHT30;51827;51.186;6.926;2022-07-22T06:19:21;22.38;65.54
65239;SHT30;51827;51.186;6.926;2022-07-22T06:20:21;22.37;65.53
65239;SHT30;51827;51.186;6.926;2022-07-22T06:21:22;22.38;65.53
65239;SHT30;51827;51.186;6.926;2022-07-22T06:22:22;22.40;65.54